Search METAR Data

METAR Data for ENSD:

ENSD 241550Z 29004KT 260V330 9999 FEW036 SCT076 06/M02 Q1007 RMK WIND RWY 26 01003KT WIND 1140FT 32004KT